createdAt,value
2023-05-15T00:00:47.547Z,8.50
2023-05-15T00:03:14.908Z,8.25
2023-05-15T00:08:25.258Z,9.00
2023-05-15T00:11:01.320Z,8.00
2023-05-15T00:13:29.052Z,6.25
2023-05-15T00:15:55.445Z,4.00
2023-05-15T00:18:21.886Z,7.00
2023-05-15T00:23:34.093Z,7.00
2023-05-15T00:26:00.474Z,7.00
2023-05-15T00:28:26.922Z,7.50
2023-05-15T00:30:53.256Z,5.00
2023-05-15T00:33:19.674Z,7.50
2023-05-15T00:38:30.683Z,7.00
2023-05-15T00:40:57.897Z,6.75
2023-05-15T00:43:24.306Z,7.00
2023-05-15T00:45:50.664Z,7.00
2023-05-15T00:48:17.079Z,8.00
2023-05-15T00:53:27.271Z,5.00
2023-05-15T00:55:54.507Z,7.00
2023-05-15T00:58:20.916Z,7.33
2023-05-15T01:00:47.308Z,7.00
2023-05-15T01:03:13.755Z,7.50
2023-05-15T01:08:23.990Z,9.00
2023-05-15T01:10:51.263Z,8.75
2023-05-15T01:13:18.469Z,6.00
2023-05-15T01:15:44.919Z,7.00
2023-05-15T01:18:12.250Z,7.25
2023-05-15T01:23:23.645Z,9.00
2023-05-15T01:25:50.884Z,7.75
2023-05-15T01:28:17.312Z,7.00
2023-05-15T01:30:43.827Z,9.00
2023-05-15T01:33:10.331Z,7.67
2023-05-15T01:35:37.615Z,8.00
2023-05-15T01:38:04.027Z,9.00
2023-05-15T01:40:30.378Z,7.00
2023-05-15T01:42:57.611Z,6.25
2023-05-15T01:45:24.235Z,8.67
2023-05-15T01:47:50.780Z,7.00
2023-05-15T01:50:17.212Z,9.00
2023-05-15T01:52:43.604Z,7.00
2023-05-15T01:55:10.038Z,8.00
2023-05-15T01:57:36.422Z,5.00
2023-05-15T02:00:03.659Z,7.75
2023-05-15T02:02:30.216Z,6.00
2023-05-15T02:04:56.689Z,8.00
2023-05-15T02:07:23.083Z,7.50
2023-05-15T02:09:52.205Z,7.00
2023-05-15T02:12:21.378Z,7.17
2023-05-15T02:14:49.672Z,7.00
2023-05-15T02:17:17.913Z,7.60
2023-05-15T02:19:44.324Z,8.67
2023-05-15T02:22:10.755Z,7.00
2023-05-15T02:24:37.181Z,8.00
2023-05-15T02:27:03.604Z,9.00
2023-05-15T02:29:30.069Z,6.67
2023-05-15T02:31:56.512Z,7.67
2023-05-15T02:34:22.940Z,7.33
2023-05-15T02:36:49.374Z,8.00
2023-05-15T02:42:00.770Z,7.25
2023-05-15T02:44:28.014Z,8.50
2023-05-15T02:46:54.556Z,8.00
2023-05-15T02:49:21.843Z,6.75
2023-05-15T02:51:51.126Z,7.50
2023-05-15T02:57:01.689Z,8.00
2023-05-15T02:59:28.118Z,8.00
2023-05-15T03:01:55.400Z,8.25
2023-05-15T03:04:21.860Z,6.00
2023-05-15T03:06:48.301Z,7.00
2023-05-15T03:11:59.495Z,7.00
2023-05-15T03:14:25.840Z,6.50
2023-05-15T03:16:52.293Z,9.00
2023-05-15T03:19:18.763Z,7.00
2023-05-15T03:21:46.086Z,8.00
2023-05-15T03:27:00.142Z,9.33
2023-05-15T03:29:26.533Z,8.67
2023-05-15T03:31:55.865Z,8.50
2023-05-15T03:34:22.423Z,9.00
2023-05-15T03:36:48.846Z,10.50
2023-05-15T03:41:59.398Z,6.00
2023-05-15T03:44:25.782Z,7.00
2023-05-15T03:46:52.191Z,6.33
2023-05-15T03:49:18.594Z,7.00
2023-05-15T03:51:44.934Z,6.67
2023-05-15T03:56:55.499Z,9.50
2023-05-15T03:59:21.959Z,7.00
2023-05-15T04:02:03.563Z,7.00
2023-05-15T04:04:31.809Z,7.75
2023-05-15T04:06:58.192Z,7.67
2023-05-15T04:12:12.247Z,7.00
2023-05-15T04:14:38.620Z,7.00
2023-05-15T04:17:05.033Z,9.00
2023-05-15T04:19:32.244Z,6.75
2023-05-15T04:21:58.653Z,10.50
2023-05-15T04:27:09.668Z,6.75
2023-05-15T04:29:36.884Z,7.00
2023-05-15T04:32:03.337Z,6.50
2023-05-15T04:34:29.767Z,7.00
2023-05-15T04:36:57.022Z,7.00
2023-05-15T04:42:07.216Z,6.67
2023-05-15T04:44:35.504Z,8.20
2023-05-15T04:47:04.673Z,6.17
2023-05-15T04:49:31.913Z,9.25
2023-05-15T04:51:58.391Z,10.00
2023-05-15T04:57:09.781Z,9.00
2023-05-15T04:59:38.080Z,9.60
2023-05-15T05:02:04.560Z,9.50
2023-05-15T05:04:31.048Z,8.00
2023-05-15T05:06:57.520Z,20.50
2023-05-15T05:09:24.910Z,16.67
2023-05-15T05:11:51.390Z,21.50
2023-05-15T05:14:17.898Z,30.00
2023-05-15T05:16:44.368Z,18.00
2023-05-15T05:19:10.958Z,19.00
2023-05-15T05:21:37.580Z,21.50
2023-05-15T05:24:04.044Z,21.00
2023-05-15T05:26:31.436Z,16.33
2023-05-15T05:28:58.808Z,16.00
2023-05-15T05:31:26.237Z,18.00
2023-05-15T05:33:52.838Z,19.50
2023-05-15T05:36:20.269Z,14.00
2023-05-15T05:38:47.811Z,12.00
2023-05-15T05:41:15.225Z,23.00
2023-05-15T05:43:41.684Z,18.00
2023-05-15T05:46:08.152Z,15.00
2023-05-15T05:48:35.501Z,13.33
2023-05-15T05:51:02.933Z,13.33
2023-05-15T05:53:29.644Z,11.00
2023-05-15T05:55:56.313Z,11.00
2023-05-15T05:58:25.888Z,9.00
2023-05-15T06:00:52.808Z,17.00
2023-05-15T06:03:19.421Z,18.00
2023-05-15T06:05:45.904Z,13.00
2023-05-15T06:08:12.410Z,11.00
2023-05-15T06:10:39.648Z,11.33
2023-05-15T06:13:06.133Z,11.00
2023-05-15T06:15:32.606Z,9.00
2023-05-15T06:17:59.159Z,8.50
2023-05-15T06:20:26.693Z,8.50
2023-05-15T06:22:53.225Z,9.00
2023-05-15T06:25:20.609Z,24.00
2023-05-15T06:30:31.029Z,13.00
2023-05-15T06:32:57.520Z,10.50
2023-05-15T06:35:24.093Z,11.00
2023-05-15T06:37:50.637Z,9.50
2023-05-15T06:40:17.094Z,8.00
2023-05-15T06:45:28.427Z,11.00
2023-05-15T06:47:59.178Z,9.80
2023-05-15T06:50:27.363Z,10.50
2023-05-15T06:52:54.710Z,9.00
2023-05-15T06:55:21.234Z,9.00
2023-05-15T07:00:36.240Z,14.00
2023-05-15T07:03:03.783Z,23.33
2023-05-15T07:05:31.241Z,15.67
2023-05-15T07:07:58.595Z,15.00
2023-05-15T07:10:26.071Z,12.00
2023-05-15T07:15:49.614Z,11.33
2023-05-15T07:18:17.051Z,17.50
2023-05-15T07:20:44.560Z,19.50
2023-05-15T07:23:11.053Z,14.00
2023-05-15T07:25:37.522Z,14.00
2023-05-15T07:30:47.734Z,14.00
2023-05-15T07:33:14.199Z,13.00
2023-05-15T07:35:40.651Z,16.00
2023-05-15T07:38:08.057Z,16.50
2023-05-15T07:40:34.559Z,14.00
2023-05-15T07:45:56.025Z,13.00
2023-05-15T07:48:23.402Z,12.00
2023-05-15T07:50:49.829Z,14.00
2023-05-15T07:53:16.250Z,10.50
2023-05-15T07:55:42.689Z,12.00
2023-05-15T08:00:53.983Z,12.67
2023-05-15T08:03:21.386Z,11.33
2023-05-15T08:05:48.769Z,12.00
2023-05-15T08:08:15.198Z,11.50
2023-05-15T08:10:42.458Z,11.33
2023-05-15T08:15:53.930Z,28.00
2023-05-15T08:18:21.384Z,19.50
2023-05-15T08:20:47.967Z,19.00
2023-05-15T08:23:14.461Z,16.50
2023-05-15T08:25:40.910Z,14.00
2023-05-15T08:30:51.246Z,12.50
2023-05-15T08:33:18.679Z,13.33
2023-05-15T08:35:46.037Z,12.00
2023-05-15T08:38:12.492Z,11.50
2023-05-15T08:40:40.105Z,12.50
2023-05-15T08:43:06.730Z,10.00
2023-05-15T08:45:33.175Z,12.00
2023-05-15T08:48:00.639Z,12.00
2023-05-15T08:50:27.197Z,12.00
2023-05-15T08:52:54.539Z,14.00
2023-05-15T08:55:21.922Z,13.00
2023-05-15T08:57:48.390Z,14.50
2023-05-15T09:00:15.104Z,14.00
2023-05-15T09:02:42.766Z,13.67
2023-05-15T09:05:09.408Z,13.00
2023-05-15T09:07:36.748Z,13.00
2023-05-15T09:10:03.211Z,12.00
2023-05-15T09:12:30.506Z,12.67
2023-05-15T09:14:56.949Z,11.00
2023-05-15T09:17:23.438Z,12.50
2023-05-15T09:19:50.791Z,15.00
2023-05-15T09:22:18.232Z,21.50
2023-05-15T09:24:45.688Z,16.33
2023-05-15T09:27:12.136Z,17.00
2023-05-15T09:29:39.564Z,25.00
2023-05-15T09:32:07.033Z,19.50
2023-05-15T09:34:34.480Z,15.67
2023-05-15T09:37:00.937Z,16.00
2023-05-15T09:39:28.315Z,12.67
2023-05-15T09:41:54.775Z,14.00
2023-05-15T09:44:21.946Z,31.00
2023-05-15T09:46:49.583Z,21.50
2023-05-15T09:49:16.095Z,17.50
2023-05-15T09:51:43.457Z,13.33
2023-05-15T09:54:10.868Z,14.00
2023-05-15T09:56:37.326Z,13.00
2023-05-15T09:59:04.829Z,14.33
2023-05-15T10:04:16.125Z,18.00
2023-05-15T10:06:43.303Z,17.00
2023-05-15T10:09:10.013Z,16.50
2023-05-15T10:11:36.557Z,13.00
2023-05-15T10:14:03.011Z,15.00
2023-05-15T10:19:24.518Z,13.00
2023-05-15T10:21:51.963Z,13.33
2023-05-15T10:24:19.302Z,13.00
2023-05-15T10:26:45.838Z,13.00
2023-05-15T10:29:13.297Z,14.00
2023-05-15T10:34:24.791Z,13.00
2023-05-15T10:36:52.157Z,14.00
2023-05-15T10:39:18.599Z,14.50
2023-05-15T10:41:45.070Z,14.50
2023-05-15T10:44:11.509Z,11.50
2023-05-15T10:49:21.764Z,12.00
2023-05-15T10:51:48.340Z,13.00
2023-05-15T10:54:14.822Z,13.50
2023-05-15T10:56:41.247Z,13.00
2023-05-15T10:59:08.583Z,11.33
2023-05-15T11:04:20.151Z,13.00
2023-05-15T11:06:46.639Z,13.00
2023-05-15T11:09:13.965Z,14.00
2023-05-15T11:11:41.603Z,13.00
2023-05-15T11:14:08.999Z,13.00
2023-05-15T11:19:30.368Z,13.00
2023-05-15T11:21:57.665Z,13.00
2023-05-15T11:24:24.992Z,13.67
2023-05-15T11:26:51.420Z,13.00
2023-05-15T11:29:17.858Z,13.00
2023-05-15T11:34:31.191Z,12.00
2023-05-15T11:36:59.592Z,11.00
2023-05-15T11:39:26.133Z,12.00
2023-05-15T11:41:53.458Z,11.33
2023-05-15T11:44:20.726Z,11.33
2023-05-15T11:49:31.068Z,12.00
2023-05-15T11:51:57.575Z,23.00
2023-05-15T11:54:24.111Z,23.00
2023-05-15T11:56:51.502Z,16.00
2023-05-15T11:59:18.925Z,12.00
2023-05-15T12:01:46.249Z,13.67
2023-05-15T12:04:13.335Z,17.00
2023-05-15T12:06:41.003Z,22.33
2023-05-15T12:09:07.508Z,20.00
2023-05-15T12:11:34.913Z,16.00
2023-05-15T12:14:02.265Z,15.00
2023-05-15T12:16:29.655Z,14.67
2023-05-15T12:18:56.241Z,26.00
2023-05-15T12:21:23.786Z,25.67
2023-05-15T12:24:03.434Z,20.00
2023-05-15T12:26:33.241Z,17.00
2023-05-15T12:29:00.610Z,14.67
2023-05-15T12:31:27.964Z,12.67
2023-05-15T12:33:54.489Z,11.00
2023-05-15T12:36:21.984Z,26.00
2023-05-15T12:38:48.777Z,22.00
2023-05-15T12:41:16.189Z,24.50
2023-05-15T12:43:42.689Z,21.50
2023-05-15T12:46:09.179Z,18.50
2023-05-15T12:48:35.717Z,17.00
2023-05-15T12:51:02.176Z,15.00
2023-05-15T12:53:28.624Z,13.00
2023-05-15T12:55:55.082Z,14.50
2023-05-15T12:58:21.581Z,20.00
2023-05-15T13:00:49.025Z,22.50
2023-05-15T13:03:16.502Z,18.50
2023-05-15T13:05:43.944Z,14.67
2023-05-15T13:08:11.309Z,13.33
2023-05-15T13:10:37.803Z,14.00
2023-05-15T13:13:04.357Z,12.00
2023-05-15T13:15:30.871Z,13.00
2023-05-15T13:17:58.279Z,14.00
2023-05-15T13:23:19.671Z,16.00
2023-05-15T13:25:46.143Z,13.00
2023-05-15T13:28:12.680Z,14.00
2023-05-15T13:30:39.990Z,10.67
2023-05-15T13:33:08.383Z,11.80
2023-05-15T13:38:19.716Z,11.00
2023-05-15T13:40:48.035Z,9.60
2023-05-15T13:43:16.329Z,8.80
2023-05-15T13:45:42.778Z,16.00
2023-05-15T13:48:09.308Z,21.00
2023-05-15T13:53:19.649Z,12.00
2023-05-15T13:55:46.138Z,10.50
2023-05-15T13:58:12.590Z,10.50
2023-05-15T14:00:39.855Z,10.67
2023-05-15T14:03:06.434Z,10.00
2023-05-15T14:08:17.609Z,11.67
2023-05-15T14:10:45.033Z,17.33
2023-05-15T14:13:11.517Z,16.50
2023-05-15T14:15:37.939Z,14.00
2023-05-15T14:18:05.355Z,12.67
2023-05-15T14:23:28.783Z,11.20
2023-05-15T14:25:56.020Z,10.33
2023-05-15T14:28:22.581Z,14.00
2023-05-15T14:30:49.054Z,13.00
2023-05-15T14:33:15.588Z,12.00
2023-05-15T14:38:26.693Z,10.33
2023-05-15T14:40:53.199Z,8.00
2023-05-15T14:43:19.657Z,11.00
2023-05-15T14:45:46.170Z,9.00
2023-05-15T14:48:14.570Z,9.60
2023-05-15T14:53:39.423Z,11.33
2023-05-15T14:56:05.865Z,9.00
2023-05-15T14:58:32.417Z,11.00
2023-05-15T15:00:58.838Z,8.00
2023-05-15T15:03:27.911Z,8.00
2023-05-15T15:08:40.674Z,14.67
2023-05-15T15:11:07.934Z,11.67
2023-05-15T15:13:35.178Z,11.67
2023-05-15T15:16:01.690Z,11.00
2023-05-15T15:18:28.248Z,10.00
2023-05-15T15:23:38.662Z,8.50
2023-05-15T15:26:05.183Z,8.00
2023-05-15T15:28:33.506Z,9.40
2023-05-15T15:31:03.473Z,10.43
2023-05-15T15:33:29.965Z,9.00
2023-05-15T15:38:42.409Z,11.00
2023-05-15T15:41:10.713Z,9.60
2023-05-15T15:43:39.032Z,9.80
2023-05-15T15:46:06.303Z,10.00
2023-05-15T15:48:32.740Z,11.00
2023-05-15T15:53:44.945Z,12.00
2023-05-15T15:56:12.222Z,9.33
2023-05-15T15:58:38.753Z,11.50
2023-05-15T16:01:06.062Z,10.67
2023-05-15T16:03:32.708Z,10.50
2023-05-15T16:06:00.327Z,10.00
2023-05-15T16:08:27.869Z,10.33
2023-05-15T16:10:55.153Z,13.00
2023-05-15T16:13:21.594Z,11.00
2023-05-15T16:15:48.937Z,10.67
2023-05-15T16:18:15.387Z,13.50
2023-05-15T16:20:41.831Z,12.50
2023-05-15T16:23:08.241Z,12.00
2023-05-15T16:25:35.508Z,12.00
2023-05-15T16:28:02.744Z,10.67
2023-05-15T16:30:44.365Z,14.00
2023-05-15T16:33:14.343Z,13.00
2023-05-15T16:35:40.770Z,14.00
2023-05-15T16:38:07.195Z,13.00
2023-05-15T16:40:33.658Z,13.00
2023-05-15T16:43:01.010Z,12.67
2023-05-15T16:45:27.458Z,15.00
2023-05-15T16:47:54.844Z,13.00
2023-05-15T16:50:21.328Z,14.00
2023-05-15T16:52:48.683Z,13.67
2023-05-15T16:55:16.060Z,11.33
2023-05-15T16:57:42.528Z,12.00
2023-05-15T17:00:08.971Z,12.00
2023-05-15T17:02:36.439Z,13.67
2023-05-15T17:05:02.995Z,26.50
2023-05-15T17:07:30.459Z,25.67
2023-05-15T17:09:56.938Z,21.50
2023-05-15T17:12:24.402Z,24.00
2023-05-15T17:14:50.898Z,29.00
2023-05-15T17:17:17.382Z,26.00
2023-05-15T17:19:44.800Z,23.67
2023-05-15T17:22:11.329Z,23.00
2023-05-15T17:27:23.633Z,26.00
2023-05-15T17:29:50.114Z,26.00
2023-05-15T17:32:16.969Z,23.00
2023-05-15T17:34:44.645Z,21.67
2023-05-15T17:37:12.044Z,21.50
2023-05-15T17:42:23.683Z,29.00
2023-05-15T17:44:50.213Z,24.00
2023-05-15T17:47:17.640Z,23.00
2023-05-15T17:49:44.125Z,21.00
2023-05-15T17:52:10.627Z,15.00
2023-05-15T17:57:32.783Z,14.67
2023-05-15T18:00:00.195Z,12.67
2023-05-15T18:02:27.642Z,13.00
2023-05-15T18:04:55.081Z,24.50
2023-05-15T18:07:21.587Z,27.50
2023-05-15T18:12:33.005Z,20.00
2023-05-15T18:14:59.481Z,17.50
2023-05-15T18:17:26.922Z,15.33
2023-05-15T18:19:53.386Z,14.00
2023-05-15T18:22:19.831Z,12.50
2023-05-15T18:27:40.051Z,13.00
2023-05-15T18:30:07.323Z,12.00
2023-05-15T18:32:33.776Z,11.00
2023-05-15T18:35:01.121Z,12.00
2023-05-15T18:37:27.552Z,11.00
2023-05-15T18:42:40.066Z,33.00
2023-05-15T18:45:06.556Z,21.00
2023-05-15T18:47:33.100Z,21.50
2023-05-15T18:50:00.516Z,23.50
2023-05-15T18:52:27.004Z,23.00
2023-05-15T18:57:39.440Z,19.50
2023-05-15T19:00:06.862Z,16.33
2023-05-15T19:02:34.409Z,14.67
2023-05-15T19:05:01.796Z,14.67
2023-05-15T19:07:28.230Z,13.00
2023-05-15T19:12:38.744Z,11.50
2023-05-15T19:15:05.248Z,9.00
2023-05-15T19:17:33.842Z,8.00
2023-05-15T19:20:00.361Z,8.00
2023-05-15T19:22:27.625Z,7.50
2023-05-15T19:27:49.633Z,6.00
2023-05-15T19:30:15.929Z,5.00
2023-05-15T19:32:42.398Z,4.33
2023-05-15T19:35:08.845Z,5.00
2023-05-15T19:37:35.180Z,5.00
2023-05-15T19:42:45.242Z,3.00
2023-05-15T19:45:11.701Z,3.67
2023-05-15T19:47:38.040Z,4.00
2023-05-15T19:50:04.486Z,4.00
2023-05-15T19:52:30.836Z,3.00
2023-05-15T19:57:51.064Z,3.00
2023-05-15T20:00:18.282Z,3.00
2023-05-15T20:02:44.728Z,4.00
2023-05-15T20:05:11.168Z,6.00
2023-05-15T20:07:37.631Z,15.00
2023-05-15T20:12:48.864Z,11.00
2023-05-15T20:15:15.340Z,8.50
2023-05-15T20:17:41.901Z,16.00
2023-05-15T20:20:08.381Z,14.50
2023-05-15T20:22:34.804Z,12.50
2023-05-15T20:25:02.084Z,13.33
2023-05-15T20:27:29.324Z,9.33
2023-05-15T20:29:56.681Z,18.00
2023-05-15T20:32:24.103Z,23.00
2023-05-15T20:34:50.562Z,18.00
2023-05-15T20:37:17.045Z,17.00
2023-05-15T20:39:44.392Z,13.67
2023-05-15T20:42:11.675Z,10.67
2023-05-15T20:44:38.093Z,12.00
2023-05-15T20:47:04.496Z,10.00
2023-05-15T20:49:31.907Z,16.33
2023-05-15T20:51:59.252Z,12.67
2023-05-15T20:54:26.618Z,11.67
2023-05-15T20:56:52.994Z,11.00
2023-05-15T20:59:19.483Z,9.00
2023-05-15T21:01:45.968Z,9.00
2023-05-15T21:04:12.490Z,6.50
2023-05-15T21:06:40.833Z,9.20
2023-05-15T21:09:09.113Z,8.00
2023-05-15T21:11:38.306Z,7.67
2023-05-15T21:14:04.724Z,7.00
2023-05-15T21:16:31.988Z,6.50
2023-05-15T21:18:58.474Z,6.00
2023-05-15T21:21:24.857Z,5.00
2023-05-15T21:23:51.205Z,6.33
2023-05-15T21:26:20.337Z,7.33
2023-05-15T21:28:46.691Z,5.33
2023-05-15T21:31:13.089Z,5.67
2023-05-15T21:33:39.494Z,6.00
2023-05-15T21:36:05.866Z,5.00
2023-05-15T21:38:32.232Z,4.67
2023-05-15T21:40:58.609Z,5.00
2023-05-15T21:46:09.632Z,5.00
2023-05-15T21:48:36.019Z,6.00
2023-05-15T21:51:02.355Z,5.00
2023-05-15T21:53:28.661Z,6.00
2023-05-15T21:55:56.108Z,16.00
2023-05-15T22:01:07.416Z,17.33
2023-05-15T22:03:33.940Z,13.00
2023-05-15T22:06:01.362Z,12.00
2023-05-15T22:08:28.589Z,10.00
2023-05-15T22:10:55.819Z,10.67
2023-05-15T22:16:08.176Z,8.60
2023-05-15T22:18:34.711Z,8.00
2023-05-15T22:21:01.107Z,6.00
2023-05-15T22:23:27.476Z,7.00
2023-05-15T22:25:53.855Z,6.00
2023-05-15T22:31:05.167Z,6.00
2023-05-15T22:33:31.501Z,5.00
2023-05-15T22:35:57.857Z,5.00
2023-05-15T22:38:24.220Z,6.00
2023-05-15T22:40:50.572Z,6.00
2023-05-15T22:46:00.643Z,5.00
2023-05-15T22:48:27.041Z,5.00
2023-05-15T22:50:53.376Z,4.33
2023-05-15T22:53:19.904Z,4.33
2023-05-15T22:55:46.249Z,5.00
2023-05-15T23:00:56.984Z,5.00
2023-05-15T23:03:23.427Z,5.00
2023-05-15T23:05:49.838Z,4.33
2023-05-15T23:08:16.177Z,4.67
2023-05-15T23:10:42.514Z,3.00
2023-05-15T23:15:52.548Z,4.00
2023-05-15T23:18:18.967Z,4.00
2023-05-15T23:20:45.358Z,4.33
2023-05-15T23:23:12.571Z,2.25
2023-05-15T23:25:38.924Z,4.00
2023-05-15T23:28:05.264Z,5.00
2023-05-15T23:30:31.588Z,4.00
2023-05-15T23:32:58.009Z,4.00
2023-05-15T23:35:24.409Z,4.00
2023-05-15T23:37:50.738Z,4.00
2023-05-15T23:40:17.124Z,3.33
2023-05-15T23:42:43.456Z,3.67
2023-05-15T23:45:09.844Z,4.00
2023-05-15T23:47:36.188Z,4.33
2023-05-15T23:50:02.533Z,4.00
2023-05-15T23:52:28.884Z,4.33
2023-05-15T23:54:55.229Z,5.00
2023-05-15T23:57:21.561Z,4.00
2023-05-15T23:59:47.894Z,4.00
